Time;durP1;ratioP1;P1;durP2;ratioP2;P2;SDS_P1;SDS_P2;PMS_P1;PMS_P2;Temp;Humidity;BMP_temperature;BMP_pressure;BME280_temperature;BME280_humidity;BME280_pressure;Samples;Min_cycle;Max_cycle;Signal;HPM_P1;HPM_P2
2021/03/13 00:00:56;;;;;;;1.97;1.87;;;5.80;99.90;;;;;;5000897;28;20271;-88
2021/03/13 00:03:22;;;;;;;3.20;1.57;;;5.80;99.90;;;;;;5007830;28;20216;-88
2021/03/13 00:05:48;;;;;;;1.93;1.43;;;5.80;99.90;;;;;;5029705;28;20301;-87
2021/03/13 00:08:14;;;;;;;1.30;0.70;;;5.90;99.90;;;;;;5010045;28;20286;-88
2021/03/13 00:10:42;;;;;;;13.83;1.27;;;5.80;99.90;;;;;;5012251;28;20199;-88
2021/03/13 00:13:08;;;;;;;8.37;1.53;;;5.80;99.90;;;;;;5030138;28;20233;-88
2021/03/13 00:15:35;;;;;;;6.50;1.73;;;5.90;99.90;;;;;;5030135;28;20305;-88
2021/03/13 00:18:02;;;;;;;3.50;1.37;;;5.90;99.90;;;;;;5014431;28;20206;-89
2021/03/13 00:20:30;;;;;;;2.17;0.87;;;5.90;99.90;;;;;;5014354;28;20218;-88
2021/03/13 00:22:57;;;;;;;0.40;0.40;;;5.80;99.90;;;;;;5046667;28;20841;-88
2021/03/13 00:25:24;;;;;;;4.13;0.70;;;5.80;99.90;;;;;;5014382;28;20273;-88
2021/03/13 00:27:51;;;;;;;2.30;1.57;;;5.80;99.90;;;;;;5013471;28;20234;-88
2021/03/13 00:30:25;;;;;;;2.20;0.97;;;5.80;99.90;;;;;;5010105;28;20265;-88
2021/03/13 00:32:53;;;;;;;1.17;1.10;;;5.70;99.90;;;;;;5029646;28;20232;-90
2021/03/13 00:35:20;;;;;;;2.57;1.20;;;5.60;99.90;;;;;;5022238;28;20248;-88
2021/03/13 00:37:48;;;;;;;1.20;1.13;;;5.70;99.90;;;;;;5012864;28;20187;-87
2021/03/13 00:40:16;;;;;;;1.77;1.20;;;5.60;99.90;;;;;;5031019;28;20224;-88
2021/03/13 00:42:43;;;;;;;1.37;0.50;;;5.60;99.90;;;;;;5029241;28;20714;-89
2021/03/13 00:45:12;;;;;;;2.03;0.87;;;5.50;99.90;;;;;;5013612;28;20713;-88
2021/03/13 00:47:37;;;;;;;5.67;1.07;;;5.60;99.90;;;;;;5010794;28;20210;-88
2021/03/13 00:50:07;;;;;;;4.07;1.27;;;5.50;99.90;;;;;;4996362;28;20217;-88
2021/03/13 00:52:33;;;;;;;11.63;2.50;;;5.50;99.90;;;;;;5030922;28;20174;-88
2021/03/13 00:54:59;;;;;;;1.70;0.93;;;5.50;99.90;;;;;;5013943;28;20561;-88
2021/03/13 00:57:25;;;;;;;2.87;2.57;;;5.40;99.90;;;;;;4996774;28;21020;-88
2021/03/13 00:59:50;;;;;;;0.93;0.93;;;5.40;99.90;;;;;;5029595;28;20793;-88
2021/03/13 01:02:16;;;;;;;4.03;1.07;;;5.40;99.90;;;;;;4996675;28;20222;-88
2021/03/13 01:04:42;;;;;;;3.50;1.17;;;5.40;99.90;;;;;;4996384;28;22058;-87
2021/03/13 01:07:09;;;;;;;1.83;1.73;;;5.40;99.90;;;;;;4996387;28;20182;-88
2021/03/13 01:09:36;;;;;;;3.47;1.90;;;5.50;99.90;;;;;;5013020;28;20715;-88
2021/03/13 01:12:03;;;;;;;5.20;0.97;;;5.50;99.90;;;;;;5046024;28;20230;-88
2021/03/13 01:14:29;;;;;;;0.57;0.57;;;5.60;99.90;;;;;;5029003;28;20308;-88
2021/03/13 01:16:56;;;;;;;1.40;1.17;;;5.60;99.90;;;;;;5012650;28;20276;-88
2021/03/13 01:19:22;;;;;;;0.57;0.57;;;5.60;99.90;;;;;;4998051;28;20201;-88
2021/03/13 01:21:47;;;;;;;1.73;1.03;;;5.70;99.90;;;;;;5011958;28;20702;-88
2021/03/13 01:24:13;;;;;;;0.63;0.63;;;5.60;99.90;;;;;;5009497;28;20289;-88
2021/03/13 01:26:39;;;;;;;0.80;0.80;;;5.70;99.90;;;;;;5012739;28;20309;-88
2021/03/13 01:29:05;;;;;;;2.37;2.10;;;5.70;99.90;;;;;;5029375;28;20731;-89
2021/03/13 01:31:31;;;;;;;4.00;1.67;;;5.80;99.90;;;;;;5030034;28;20688;-89
2021/03/13 01:33:57;;;;;;;0.33;0.33;;;5.80;99.90;;;;;;4996268;28;20206;-88
2021/03/13 01:36:23;;;;;;;10.47;2.17;;;5.80;99.90;;;;;;5012406;28;20222;-90
2021/03/13 01:38:49;;;;;;;3.13;1.20;;;5.90;99.90;;;;;;5029024;28;20784;-91
2021/03/13 01:41:15;;;;;;;5.47;1.03;;;6.00;99.90;;;;;;5028623;28;20333;-91
2021/03/13 01:43:41;;;;;;;8.27;1.57;;;6.00;99.90;;;;;;5030332;28;20286;-91
2021/03/13 01:46:07;;;;;;;1.97;1.73;;;6.10;99.90;;;;;;5012528;28;20834;-90
2021/03/13 01:48:36;;;;;;;5.10;0.83;;;6.10;99.90;;;;;;4997122;28;20686;-91
2021/03/13 01:51:03;;;;;;;3.07;2.40;;;6.10;99.90;;;;;;5035888;28;20256;-88
2021/03/13 01:53:29;;;;;;;0.73;0.73;;;6.20;99.90;;;;;;5044391;28;20209;-88
2021/03/13 01:55:55;;;;;;;1.63;1.53;;;6.30;99.90;;;;;;5012544;28;20186;-90
2021/03/13 01:58:22;;;;;;;16.80;1.83;;;6.30;99.90;;;;;;5030537;28;20252;-90
2021/03/13 02:00:48;;;;;;;1.30;0.47;;;6.40;99.90;;;;;;5012267;28;20247;-90
2021/03/13 02:03:14;;;;;;;3.87;1.17;;;6.40;99.90;;;;;;5027724;28;20218;-89
2021/03/13 02:05:46;;;;;;;1.10;1.00;;;6.50;99.90;;;;;;4995820;28;20233;-88
2021/03/13 02:08:39;;;;;;;2.60;2.33;;;6.50;99.90;;;;;;5028412;28;20268;-88
2021/03/13 02:11:31;;;;;;;10.37;1.37;;;6.50;99.90;;;;;;5028121;28;20222;-90
2021/03/13 02:14:12;;;;;;;3.17;2.60;;;6.50;99.90;;;;;;5027816;28;20214;-90
2021/03/13 02:16:56;;;;;;;5.03;2.33;;;6.60;99.90;;;;;;5030239;28;20186;-90
2021/03/13 02:19:47;;;;;;;1.63;1.33;;;6.60;99.90;;;;;;5009036;28;20226;-88
2021/03/13 02:22:18;;;;;;;11.80;3.93;;;6.60;99.90;;;;;;5024664;28;20782;-88
2021/03/13 02:24:59;;;;;;;3.07;1.57;;;6.60;99.90;;;;;;5008740;28;20321;-87
2021/03/13 02:27:43;;;;;;;5.03;2.03;;;6.70;99.90;;;;;;5021163;28;20225;-88
2021/03/13 02:30:14;;;;;;;7.17;2.47;;;6.60;99.90;;;;;;5045613;28;20202;-88
2021/03/13 02:33:21;;;;;;;8.03;1.90;;;6.70;99.90;;;;;;5019995;28;20228;-88
2021/03/13 02:36:10;;;;;;;10.23;2.00;;;6.70;99.90;;;;;;5017153;28;20214;-88
2021/03/13 02:38:58;;;;;;;1.70;1.47;;;6.70;99.90;;;;;;5027532;28;20237;-90
2021/03/13 02:41:30;;;;;;;4.13;1.63;;;6.80;99.90;;;;;;5027612;28;20225;-89
2021/03/13 02:44:00;;;;;;;9.13;1.80;;;6.80;99.90;;;;;;5027618;28;20227;-88
2021/03/13 02:46:27;;;;;;;1.40;1.37;;;6.80;99.90;;;;;;5029410;28;20762;-88
2021/03/13 02:48:54;;;;;;;3.07;1.67;;;6.80;99.90;;;;;;5027968;28;20217;-88
2021/03/13 02:51:24;;;;;;;3.10;1.73;;;6.80;99.90;;;;;;5013959;28;20222;-88
2021/03/13 02:53:50;;;;;;;1.57;1.20;;;6.80;99.90;;;;;;5007095;28;20214;-88
2021/03/13 02:56:17;;;;;;;1.90;1.80;;;6.90;99.90;;;;;;4996171;28;20718;-88
2021/03/13 02:58:46;;;;;;;3.20;2.10;;;6.90;99.90;;;;;;4989626;28;20179;-87
2021/03/13 03:01:12;;;;;;;2.07;1.47;;;6.90;99.90;;;;;;5035877;28;20213;-88
2021/03/13 03:03:39;;;;;;;2.30;2.10;;;6.90;99.90;;;;;;4997119;28;20226;-88
2021/03/13 03:06:06;;;;;;;1.77;1.27;;;6.90;99.90;;;;;;5005922;28;20705;-88
2021/03/13 03:08:33;;;;;;;2.87;1.43;;;6.90;99.90;;;;;;5010775;28;20221;-88
2021/03/13 03:11:00;;;;;;;4.70;1.20;;;6.90;99.90;;;;;;5011206;28;20213;-88
2021/03/13 03:13:27;;;;;;;1.77;1.20;;;6.90;99.90;;;;;;5046015;28;20234;-88
2021/03/13 03:15:58;;;;;;;2.10;1.60;;;6.90;99.90;;;;;;4998698;28;20211;-88
2021/03/13 03:18:27;;;;;;;0.77;0.73;;;6.90;99.90;;;;;;5021560;28;20242;-88
2021/03/13 03:20:54;;;;;;;1.70;1.60;;;6.80;99.90;;;;;;5026833;28;20296;-88
2021/03/13 03:23:20;;;;;;;4.93;1.90;;;6.80;99.90;;;;;;5044741;28;21234;-87
2021/03/13 03:25:46;;;;;;;6.00;2.20;;;6.80;99.90;;;;;;5043960;28;20186;-87
2021/03/13 03:28:14;;;;;;;4.10;1.60;;;6.70;99.90;;;;;;5028319;28;20181;-87
2021/03/13 03:30:40;;;;;;;0.67;0.63;;;6.60;99.90;;;;;;4994070;28;20275;-89
2021/03/13 03:33:07;;;;;;;3.90;1.10;;;6.60;99.90;;;;;;5010920;28;20247;-87
2021/03/13 03:35:33;;;;;;;1.60;1.50;;;6.50;99.90;;;;;;5011089;28;20240;-87
2021/03/13 03:38:01;;;;;;;2.17;1.87;;;6.50;99.90;;;;;;5025935;28;20181;-87
2021/03/13 03:40:31;;;;;;;0.70;0.70;;;6.40;99.90;;;;;;5028194;28;20190;-87
2021/03/13 03:43:07;;;;;;;8.33;0.90;;;6.40;99.90;;;;;;5044325;28;20261;-87
2021/03/13 03:45:34;;;;;;;3.60;1.93;;;6.30;99.90;;;;;;5043416;28;20229;-87
2021/03/13 03:48:07;;;;;;;1.23;1.17;;;6.20;99.90;;;;;;5026185;28;20283;-86
2021/03/13 03:50:34;;;;;;;1.20;0.90;;;6.10;99.90;;;;;;5043691;28;20245;-87
2021/03/13 03:53:00;;;;;;;1.43;0.93;;;6.10;99.90;;;;;;5026459;28;20182;-87
2021/03/13 03:55:27;;;;;;;0.93;0.60;;;6.10;99.90;;;;;;4995437;28;20275;-87
2021/03/13 03:57:55;;;;;;;1.23;0.80;;;6.10;99.90;;;;;;5009677;28;20218;-87
2021/03/13 04:00:23;;;;;;;1.03;0.93;;;6.10;99.90;;;;;;5007520;28;20341;-87
2021/03/13 04:02:50;;;;;;;5.37;1.10;;;6.00;99.90;;;;;;5009904;28;20210;-87
2021/03/13 04:05:18;;;;;;;1.07;0.60;;;6.00;99.90;;;;;;5010064;28;20698;-88
2021/03/13 04:07:44;;;;;;;0.70;0.70;;;6.00;99.90;;;;;;5043183;28;20182;-87
2021/03/13 04:10:11;;;;;;;0.93;0.80;;;6.10;99.90;;;;;;4995188;28;20198;-87
2021/03/13 04:12:40;;;;;;;1.13;0.67;;;6.00;99.90;;;;;;5026493;28;20233;-87
2021/03/13 04:15:09;;;;;;;0.20;0.20;;;6.00;99.90;;;;;;5026270;28;20233;-86
2021/03/13 04:17:36;;;;;;;1.00;0.80;;;6.00;99.90;;;;;;5010130;28;20216;-87
2021/03/13 04:20:05;;;;;;;0.87;0.87;;;6.00;99.90;;;;;;5025912;28;20230;-87
2021/03/13 04:22:32;;;;;;;2.10;0.80;;;6.00;99.90;;;;;;5027540;28;20630;-87
2021/03/13 04:25:02;;;;;;;2.40;1.10;;;5.90;99.90;;;;;;5025875;28;20221;-87
2021/03/13 04:27:28;;;;;;;0.23;0.23;;;5.90;99.90;;;;;;5044337;28;20213;-87
2021/03/13 04:29:54;;;;;;;0.60;0.60;;;5.90;99.90;;;;;;5009539;28;20206;-87
2021/03/13 04:32:21;;;;;;;2.27;1.40;;;5.90;99.90;;;;;;5010084;28;20225;-87
2021/03/13 04:34:49;;;;;;;1.33;1.27;;;5.90;99.90;;;;;;5008579;28;20197;-88
2021/03/13 04:37:16;;;;;;;0.97;0.83;;;5.90;99.90;;;;;;5009033;28;20280;-87
2021/03/13 04:39:43;;;;;;;0.20;0.20;;;5.90;99.90;;;;;;4989846;28;20289;-87
2021/03/13 04:42:09;;;;;;;2.60;0.57;;;5.90;99.90;;;;;;5009772;28;20284;-89
2021/03/13 04:44:37;;;;;;;3.33;0.90;;;5.90;99.90;;;;;;5000923;28;20284;-90
2021/03/13 04:47:04;;;;;;;0.87;0.83;;;5.90;99.90;;;;;;5030380;28;20233;-90
2021/03/13 04:49:30;;;;;;;5.10;1.07;;;5.90;99.90;;;;;;5015136;28;20181;-90
2021/03/13 04:51:59;;;;;;;3.33;1.17;;;5.90;99.90;;;;;;5028985;28;20229;-89
2021/03/13 04:54:28;;;;;;;0.73;0.73;;;5.90;99.90;;;;;;5028796;28;20637;-90
2021/03/13 04:56:54;;;;;;;1.37;1.27;;;5.90;99.90;;;;;;5012998;28;20283;-90
2021/03/13 04:59:21;;;;;;;1.43;1.13;;;5.90;99.90;;;;;;5012362;28;20226;-90
2021/03/13 05:01:47;;;;;;;1.13;0.73;;;5.90;99.90;;;;;;4996742;28;20236;-90
2021/03/13 05:04:13;;;;;;;2.10;0.90;;;5.90;99.90;;;;;;5031223;28;20182;-88
2021/03/13 05:06:39;;;;;;;1.40;1.30;;;5.90;99.90;;;;;;4993746;28;21014;-89
2021/03/13 05:09:05;;;;;;;1.23;1.00;;;6.00;99.90;;;;;;4987999;28;20712;-89
2021/03/13 05:11:32;;;;;;;1.03;0.90;;;6.00;99.90;;;;;;4989857;28;20238;-88
2021/03/13 05:13:59;;;;;;;1.83;1.73;;;6.00;99.90;;;;;;4996390;28;20296;-88
2021/03/13 05:16:25;;;;;;;0.87;0.80;;;6.10;99.90;;;;;;5014634;28;20201;-89
2021/03/13 05:18:51;;;;;;;0.50;0.50;;;6.20;99.90;;;;;;4997006;28;20206;-88
2021/03/13 05:21:17;;;;;;;1.80;1.17;;;6.20;99.90;;;;;;5013417;28;20218;-88
2021/03/13 05:23:44;;;;;;;0.70;0.70;;;6.30;99.90;;;;;;5011824;28;20698;-88
2021/03/13 05:26:10;;;;;;;1.53;1.23;;;6.30;99.90;;;;;;4996019;28;20740;-88
2021/03/13 05:28:35;;;;;;;1.03;0.80;;;6.30;99.90;;;;;;5014333;28;20179;-88
2021/03/13 05:31:01;;;;;;;1.37;1.10;;;6.40;99.90;;;;;;5012904;28;20225;-88
2021/03/13 05:33:27;;;;;;;1.43;1.33;;;6.40;99.90;;;;;;4998338;28;20295;-88
2021/03/13 05:35:53;;;;;;;1.37;1.20;;;6.40;99.90;;;;;;4993320;28;20572;-88
2021/03/13 05:38:19;;;;;;;0.87;0.70;;;6.40;99.90;;;;;;4997379;28;20291;-88
2021/03/13 05:40:45;;;;;;;1.40;1.17;;;6.50;99.90;;;;;;5013205;28;20236;-88
2021/03/13 05:43:13;;;;;;;1.60;1.50;;;6.40;99.90;;;;;;5013583;28;20650;-88
2021/03/13 05:45:40;;;;;;;1.17;1.07;;;6.50;99.90;;;;;;4997069;28;20222;-88
2021/03/13 05:48:08;;;;;;;0.60;0.60;;;6.50;99.90;;;;;;5005319;28;20226;-89
2021/03/13 05:50:35;;;;;;;1.10;1.10;;;6.50;99.90;;;;;;5029381;28;20214;-89
2021/03/13 05:53:05;;;;;;;1.03;0.93;;;6.60;99.90;;;;;;5028289;28;20182;-88
2021/03/13 05:55:31;;;;;;;1.90;1.80;;;6.60;99.90;;;;;;5007588;28;20178;-89
2021/03/13 05:57:59;;;;;;;3.17;1.27;;;6.60;99.90;;;;;;5009124;28;20214;-88
2021/03/13 06:00:25;;;;;;;1.50;0.90;;;6.70;99.90;;;;;;5038955;28;20256;-89
2021/03/13 06:02:51;;;;;;;0.97;0.40;;;6.70;99.90;;;;;;4986857;28;20210;-89
2021/03/13 06:05:17;;;;;;;1.07;1.07;;;6.80;99.90;;;;;;4997610;28;20257;-88
2021/03/13 06:07:44;;;;;;;0.53;0.47;;;6.80;99.90;;;;;;5012548;28;20236;-89
2021/03/13 06:10:13;;;;;;;1.37;1.27;;;6.80;99.90;;;;;;5029717;28;20587;-89
2021/03/13 06:12:39;;;;;;;1.47;1.17;;;6.80;99.90;;;;;;4997755;28;20646;-89
2021/03/13 06:15:06;;;;;;;2.20;1.47;;;6.90;99.90;;;;;;4972731;28;20273;-89
2021/03/13 06:17:51;;;;;;;1.70;1.00;;;6.90;99.90;;;;;;5005297;28;20718;-89
2021/03/13 06:20:22;;;;;;;1.10;1.00;;;6.90;99.90;;;;;;5021647;28;20614;-88
2021/03/13 06:22:48;;;;;;;1.13;0.93;;;6.90;99.90;;;;;;5021490;28;20280;-89
2021/03/13 06:25:13;;;;;;;0.80;0.80;;;6.90;99.90;;;;;;5005557;28;20698;-89
2021/03/13 06:27:47;;;;;;;0.70;0.70;;;6.90;99.90;;;;;;5005756;28;20215;-89
2021/03/13 06:30:14;;;;;;;1.20;0.40;;;6.90;99.90;;;;;;5004594;28;20688;-89
2021/03/13 06:32:41;;;;;;;2.63;0.90;;;7.00;99.90;;;;;;4987936;28;20680;-88
2021/03/13 06:35:30;;;;;;;0.37;0.37;;;7.00;99.90;;;;;;5004784;28;20267;-89
2021/03/13 06:37:57;;;;;;;0.50;0.50;;;6.90;99.90;;;;;;4989140;28;20199;-88
2021/03/13 06:40:35;;;;;;;0.30;0.30;;;6.90;99.90;;;;;;4996257;28;20199;-88
2021/03/13 06:43:17;;;;;;;1.80;0.77;;;6.90;99.90;;;;;;5004143;28;20254;-90
2021/03/13 06:45:58;;;;;;;0.83;0.40;;;6.90;99.90;;;;;;5004121;28;20607;-88
2021/03/13 06:48:51;;;;;;;3.17;0.60;;;6.80;99.90;;;;;;5004230;28;20271;-88
2021/03/13 06:51:32;;;;;;;0.67;0.67;;;6.80;99.90;;;;;;5004549;28;20658;-90
2021/03/13 06:54:13;;;;;;;11.73;0.93;;;6.80;99.90;;;;;;5004791;28;20551;-88
2021/03/13 06:56:42;;;;;;;0.30;0.30;;;6.70;99.90;;;;;;5004508;28;20222;-91
2021/03/13 06:59:18;;;;;;;1.70;1.30;;;6.80;99.90;;;;;;5004385;28;20221;-88
2021/03/13 07:01:44;;;;;;;2.77;1.00;;;6.80;99.90;;;;;;5003880;28;20195;-88
2021/03/13 07:04:10;;;;;;;0.63;0.63;;;6.80;99.90;;;;;;4989167;28;20198;-89
2021/03/13 07:06:46;;;;;;;3.30;0.30;;;6.80;99.90;;;;;;5004275;28;20272;-89
2021/03/13 07:09:12;;;;;;;0.37;0.37;;;6.90;99.90;;;;;;4987431;28;20227;-89
2021/03/13 07:11:38;;;;;;;0.30;0.30;;;6.80;99.90;;;;;;4987651;28;20239;-89
2021/03/13 07:14:04;;;;;;;0.30;0.30;;;6.80;99.90;;;;;;4987590;28;20303;-89
2021/03/13 07:16:35;;;;;;;1.07;0.73;;;6.90;99.90;;;;;;5005207;28;20183;-89
2021/03/13 07:19:08;;;;;;;1.40;0.50;;;7.10;99.90;;;;;;5008159;28;20607;-89
2021/03/13 07:21:36;;;;;;;11.17;1.30;;;7.50;99.90;;;;;;4984156;28;20212;-90
2021/03/13 07:24:07;;;;;;;0.40;0.40;;;8.50;99.90;;;;;;5000273;28;20207;-92
2021/03/13 07:26:41;;;;;;;0.20;0.20;;;9.00;99.90;;;;;;4991235;28;20215;-93
2021/03/13 07:29:17;;;;;;;1.40;1.07;;;8.70;99.90;;;;;;5007963;28;20804;-94
2021/03/13 07:32:03;;;;;;;3.67;1.63;;;8.20;99.90;;;;;;5008538;28;20218;-92
2021/03/13 07:34:37;;;;;;;0.27;0.27;;;7.40;99.90;;;;;;5010452;28;20187;-93
2021/03/13 07:37:04;;;;;;;1.53;0.77;;;6.90;99.90;;;;;;4990794;28;20219;-91
2021/03/13 07:39:42;;;;;;;2.13;1.93;;;6.80;99.90;;;;;;5006610;28;20269;-92
2021/03/13 07:42:12;;;;;;;1.33;0.90;;;6.80;99.90;;;;;;4969887;28;20255;-91
2021/03/13 07:44:39;;;;;;;0.63;0.63;;;7.20;99.90;;;;;;4974024;28;21394;-93
2021/03/13 07:47:06;;;;;;;8.47;1.77;;;8.40;99.90;;;;;;4973520;28;20225;-93
2021/03/13 07:49:34;;;;;;;0.63;0.37;;;8.60;99.90;;;;;;4992737;28;20187;-91
2021/03/13 07:52:02;;;;;;;2.30;0.40;;;8.00;99.90;;;;;;4972941;28;20576;-92
2021/03/13 07:54:30;;;;;;;7.20;1.13;;;7.70;99.90;;;;;;4965517;28;20206;-94
2021/03/13 07:56:58;;;;;;;4.40;0.57;;;7.60;99.90;;;;;;5011620;28;20211;-90
2021/03/13 07:59:45;;;;;;;5.23;1.57;;;8.20;99.90;;;;;;4991195;28;20211;-93
2021/03/13 08:02:29;;;;;;;1.50;1.17;;;9.00;99.90;;;;;;5023964;28;20271;-89
2021/03/13 08:04:59;;;;;;;0.50;0.50;;;8.50;99.90;;;;;;5004535;28;20246;-94
2021/03/13 08:07:26;;;;;;;11.13;0.63;;;8.00;99.90;;;;;;5002273;28;20215;-93
2021/03/13 08:09:53;;;;;;;0.50;0.50;;;7.70;99.90;;;;;;4968899;28;20319;-94
2021/03/13 08:12:57;;;;;;;0.70;0.70;;;7.60;99.90;;;;;;4973314;28;20240;-90
2021/03/13 08:15:32;;;;;;;0.40;0.40;;;7.60;99.90;;;;;;5023519;28;20275;-93
2021/03/13 08:17:58;;;;;;;0.97;0.90;;;8.10;99.90;;;;;;5045577;28;20636;-93
2021/03/13 08:20:32;;;;;;;3.90;1.47;;;8.30;99.90;;;;;;5014113;28;20225;-90
2021/03/13 08:23:15;;;;;;;6.73;0.97;;;8.00;99.90;;;;;;5030637;28;20232;-91
2021/03/13 08:25:58;;;;;;;10.70;1.70;;;7.90;99.90;;;;;;5030025;28;20272;-93
2021/03/13 08:28:49;;;;;;;9.17;0.80;;;7.70;99.90;;;;;;5030086;28;20213;-90
2021/03/13 08:31:24;;;;;;;2.40;2.20;;;7.60;99.90;;;;;;5009764;28;20222;-91
2021/03/13 08:33:50;;;;;;;2.93;0.87;;;7.50;99.90;;;;;;5019132;28;20309;-91
2021/03/13 08:36:18;;;;;;;0.87;0.73;;;7.50;99.90;;;;;;5042289;28;20305;-92
2021/03/13 08:38:53;;;;;;;4.23;0.80;;;7.60;99.90;;;;;;5013859;28;20205;-87
2021/03/13 08:41:44;;;;;;;9.20;1.70;;;7.60;99.90;;;;;;5029586;28;20275;-88
2021/03/13 08:44:26;;;;;;;2.93;0.40;;;7.70;99.90;;;;;;5026241;28;21001;-87
2021/03/13 08:46:59;;;;;;;0.50;0.50;;;7.90;99.90;;;;;;5011651;28;20273;-87
2021/03/13 08:49:24;;;;;;;8.80;1.13;;;8.40;99.90;;;;;;5031391;28;20596;-89
2021/03/13 08:52:05;;;;;;;7.67;1.63;;;8.40;99.90;;;;;;5047562;28;20287;-87
2021/03/13 08:54:37;;;;;;;1.10;0.83;;;8.20;99.90;;;;;;5029495;28;20634;-89
2021/03/13 08:57:43;;;;;;;2.37;1.00;;;8.00;99.90;;;;;;5033331;28;20203;-88
2021/03/13 09:00:10;;;;;;;3.20;2.03;;;7.80;99.90;;;;;;5021534;28;20210;-87
2021/03/13 09:02:39;;;;;;;1.17;0.50;;;7.70;99.90;;;;;;4996551;28;21362;-87
2021/03/13 09:05:11;;;;;;;1.90;1.00;;;7.60;99.90;;;;;;5029101;28;20235;-87
2021/03/13 09:07:37;;;;;;;1.77;0.77;;;7.60;99.90;;;;;;5030577;28;20255;-87
2021/03/13 09:10:05;;;;;;;1.60;1.37;;;7.70;99.90;;;;;;5012393;28;20218;-86
2021/03/13 09:12:32;;;;;;;6.13;1.07;;;7.80;99.90;;;;;;4996321;28;20218;-88
2021/03/13 09:15:03;;;;;;;6.20;1.13;;;7.80;99.90;;;;;;5029346;28;20708;-86
2021/03/13 09:17:31;;;;;;;4.30;1.67;;;7.70;99.90;;;;;;5029102;28;20297;-86
2021/03/13 09:20:06;;;;;;;4.17;1.17;;;7.70;99.90;;;;;;5028747;28;20190;-86
2021/03/13 09:22:31;;;;;;;5.13;1.80;;;7.60;99.90;;;;;;5029788;28;20197;-87
2021/03/13 09:25:00;;;;;;;7.07;0.80;;;7.60;99.90;;;;;;5012388;28;20241;-86
2021/03/13 09:27:30;;;;;;;1.93;1.73;;;7.80;99.90;;;;;;5027472;28;20222;-88
2021/03/13 09:29:57;;;;;;;31.40;2.10;;;7.70;99.90;;;;;;5013277;28;20224;-90
2021/03/13 09:32:25;;;;;;;3.50;1.30;;;7.70;99.90;;;;;;5028815;28;20229;-89
2021/03/13 09:34:53;;;;;;;2.33;0.90;;;7.70;99.90;;;;;;5005895;28;20639;-88
2021/03/13 09:37:25;;;;;;;3.90;2.00;;;7.80;99.90;;;;;;5013728;28;20739;-90
2021/03/13 09:39:54;;;;;;;4.23;1.27;;;7.90;99.90;;;;;;5028632;28;20296;-90
2021/03/13 09:42:28;;;;;;;4.83;1.43;;;7.90;99.90;;;;;;5028154;28;20297;-90
2021/03/13 09:44:55;;;;;;;5.87;1.40;;;8.00;99.90;;;;;;5013305;28;20210;-89
2021/03/13 09:47:34;;;;;;;2.67;1.50;;;7.90;99.90;;;;;;5028643;28;20233;-91
2021/03/13 09:50:08;;;;;;;4.53;0.77;;;7.70;99.90;;;;;;5028849;28;20194;-89
2021/03/13 09:52:36;;;;;;;4.10;2.07;;;7.60;99.90;;;;;;5030382;28;20206;-91
2021/03/13 09:55:08;;;;;;;3.93;1.60;;;7.70;99.90;;;;;;5015053;28;20628;-93
2021/03/13 09:57:36;;;;;;;0.70;0.70;;;7.90;99.90;;;;;;5029966;28;20210;-90
2021/03/13 10:00:06;;;;;;;0.90;0.83;;;8.10;99.90;;;;;;5012948;28;20207;-91
2021/03/13 10:02:32;;;;;;;9.10;1.43;;;8.10;99.90;;;;;;5028366;28;20297;-92
2021/03/13 10:04:58;;;;;;;2.00;1.80;;;8.20;99.90;;;;;;4995852;28;20189;-90
2021/03/13 10:07:24;;;;;;;1.33;0.80;;;8.10;99.90;;;;;;5013320;28;20190;-93
2021/03/13 10:09:55;;;;;;;7.07;2.73;;;8.10;99.90;;;;;;5027533;28;20220;-91
2021/03/13 10:12:36;;;;;;;1.40;1.27;;;8.00;99.90;;;;;;5028404;28;20320;-93
2021/03/13 10:15:27;;;;;;;3.47;0.50;;;8.00;99.90;;;;;;5046068;28;20221;-90
2021/03/13 10:17:54;;;;;;;6.13;1.90;;;8.00;99.90;;;;;;5011113;28;21386;-91
2021/03/13 10:20:22;;;;;;;9.00;1.57;;;8.10;99.90;;;;;;5027822;28;20221;-91
2021/03/13 10:22:48;;;;;;;2.10;1.20;;;8.00;99.90;;;;;;5010904;28;20662;-92
2021/03/13 10:25:14;;;;;;;5.00;1.70;;;8.10;99.90;;;;;;5012275;28;20255;-90
2021/03/13 10:27:40;;;;;;;1.13;0.83;;;8.00;99.90;;;;;;4995312;28;20222;-91
2021/03/13 10:30:08;;;;;;;5.10;1.40;;;7.90;99.90;;;;;;5027345;28;20218;-90
2021/03/13 10:32:36;;;;;;;2.27;1.60;;;7.70;99.90;;;;;;5043634;28;20279;-91
2021/03/13 10:35:06;;;;;;;4.80;0.67;;;7.50;99.90;;;;;;5011378;28;20240;-91
2021/03/13 10:37:52;;;;;;;5.10;1.03;;;7.40;99.90;;;;;;5045432;28;20570;-92
2021/03/13 10:40:49;;;;;;;1.60;1.27;;;7.40;99.90;;;;;;5027115;28;20222;-92
2021/03/13 10:43:30;;;;;;;4.00;0.37;;;7.60;99.90;;;;;;5003737;28;20205;-92
2021/03/13 10:45:58;;;;;;;2.27;1.67;;;7.90;99.90;;;;;;5026690;28;20210;-91
2021/03/13 10:48:28;;;;;;;5.30;1.87;;;8.50;99.90;;;;;;5025882;28;20214;-91
2021/03/13 10:50:55;;;;;;;9.23;1.17;;;8.50;99.90;;;;;;5026576;28;20292;-91
2021/03/13 10:53:30;;;;;;;0.80;0.73;;;8.50;99.90;;;;;;4987759;28;20222;-91
2021/03/13 10:56:02;;;;;;;1.60;0.67;;;8.70;99.90;;;;;;5007687;28;20182;-92
2021/03/13 10:58:51;;;;;;;2.73;1.33;;;8.60;99.90;;;;;;5011662;28;20204;-92
2021/03/13 11:01:18;;;;;;;2.60;0.80;;;8.70;99.90;;;;;;5007377;28;20230;-92
2021/03/13 11:03:46;;;;;;;6.90;2.10;;;8.50;99.90;;;;;;5009068;28;20210;-90
2021/03/13 11:06:13;;;;;;;2.00;1.17;;;8.40;99.90;;;;;;5045176;28;20631;-92
2021/03/13 11:08:39;;;;;;;1.67;1.00;;;8.20;99.90;;;;;;5028055;28;20803;-94
2021/03/13 11:11:05;;;;;;;2.63;2.40;;;8.20;99.90;;;;;;5010657;28;20598;-93
2021/03/13 11:13:32;;;;;;;5.37;1.90;;;8.00;99.90;;;;;;5026109;28;20230;-92
2021/03/13 11:15:58;;;;;;;2.30;1.70;;;7.90;99.90;;;;;;5007153;28;20254;-94
2021/03/13 11:18:24;;;;;;;3.07;1.40;;;8.20;99.90;;;;;;4991324;28;20218;-94
2021/03/13 11:20:50;;;;;;;2.93;1.17;;;8.70;99.90;;;;;;5002654;28;20211;-93
2021/03/13 11:23:16;;;;;;;14.83;1.43;;;8.60;99.90;;;;;;5007530;28;20794;-93
2021/03/13 11:25:42;;;;;;;2.07;1.50;;;8.20;99.90;;;;;;5024727;28;20244;-93
2021/03/13 11:28:09;;;;;;;10.73;1.67;;;7.80;99.90;;;;;;5007690;28;20682;-93
2021/03/13 11:30:36;;;;;;;10.07;1.23;;;8.00;99.90;;;;;;5006180;28;20222;-94
2021/03/13 11:33:04;;;;;;;3.10;1.57;;;8.20;99.90;;;;;;5022645;28;20238;-93
2021/03/13 11:35:30;;;;;;;2.70;0.67;;;8.20;99.90;;;;;;5023588;28;20297;-93
2021/03/13 11:37:56;;;;;;;1.57;1.00;;;8.20;99.90;;;;;;5009806;28;20321;-93
2021/03/13 11:40:23;;;;;;;0.73;0.40;;;8.30;99.90;;;;;;5024666;28;20183;-91
2021/03/13 11:42:52;;;;;;;5.13;2.70;;;8.30;99.90;;;;;;5006919;28;20214;-93
2021/03/13 11:45:19;;;;;;;1.60;0.63;;;8.30;99.90;;;;;;5023528;28;20718;-94
2021/03/13 11:47:45;;;;;;;0.90;0.70;;;8.40;99.90;;;;;;5024411;28;20269;-94
2021/03/13 11:50:15;;;;;;;0.97;0.50;;;8.40;99.90;;;;;;5023320;28;20229;-91
2021/03/13 11:52:41;;;;;;;0.30;0.30;;;8.60;99.90;;;;;;5045338;28;20689;-95
2021/03/13 11:55:08;;;;;;;2.37;1.47;;;8.60;99.90;;;;;;5007029;28;20219;-93
2021/03/13 11:57:35;;;;;;;5.17;1.53;;;8.60;99.90;;;;;;4989922;28;20613;-93
2021/03/13 12:00:01;;;;;;;3.60;2.07;;;8.60;99.90;;;;;;4999993;28;20706;-92
2021/03/13 12:02:27;;;;;;;0.50;0.50;;;8.70;99.90;;;;;;4996325;28;20218;-93
2021/03/13 12:04:52;;;;;;;2.03;1.83;;;8.70;99.90;;;;;;4994375;28;20282;-93
2021/03/13 12:07:18;;;;;;;4.30;1.87;;;8.90;99.90;;;;;;5012183;28;20653;-92
2021/03/13 12:09:44;;;;;;;1.17;0.87;;;8.70;99.90;;;;;;5030673;28;20249;-93
2021/03/13 12:12:11;;;;;;;2.27;1.23;;;8.30;99.90;;;;;;5012920;28;20292;-89
2021/03/13 12:14:37;;;;;;;5.80;3.43;;;8.30;99.90;;;;;;5011313;28;20283;-93
2021/03/13 12:17:04;;;;;;;7.57;2.13;;;8.40;99.90;;;;;;5029422;28;20237;-93
2021/03/13 12:19:30;;;;;;;7.00;2.00;;;8.10;99.90;;;;;;5017069;28;20190;-94
2021/03/13 12:21:57;;;;;;;1.60;1.03;;;8.30;99.90;;;;;;4998029;28;20211;-93
2021/03/13 12:24:23;;;;;;;2.20;1.07;;;8.30;99.90;;;;;;5008338;28;20306;-93
2021/03/13 12:26:49;;;;;;;1.90;1.03;;;8.10;99.90;;;;;;5017566;28;20207;-93
2021/03/13 12:29:15;;;;;;;6.33;1.13;;;8.20;99.90;;;;;;5028506;28;20210;-92
2021/03/13 12:31:41;;;;;;;0.23;0.23;;;8.30;99.90;;;;;;5044460;28;20285;-90
2021/03/13 12:34:07;;;;;;;0.60;0.60;;;8.40;99.90;;;;;;5010492;28;20301;-92
2021/03/13 12:36:33;;;;;;;5.23;1.03;;;8.30;99.90;;;;;;5027000;28;20645;-93
2021/03/13 12:38:59;;;;;;;1.37;1.03;;;8.00;99.90;;;;;;4983388;28;20214;-91
2021/03/13 12:41:24;;;;;;;1.23;0.97;;;7.70;99.90;;;;;;4995817;28;20198;-91
2021/03/13 12:43:50;;;;;;;2.50;2.23;;;7.80;99.90;;;;;;4993544;28;20266;-93
2021/03/13 12:46:17;;;;;;;1.93;0.83;;;7.90;99.90;;;;;;4995428;28;20182;-92
2021/03/13 12:48:44;;;;;;;2.60;1.73;;;7.90;99.90;;;;;;4993529;28;20265;-93
2021/03/13 12:51:10;;;;;;;3.07;0.70;;;7.90;99.90;;;;;;5005107;28;20223;-92
2021/03/13 12:53:35;;;;;;;1.07;1.07;;;8.00;99.90;;;;;;5010015;28;20225;-90
2021/03/13 12:56:03;;;;;;;2.33;1.37;;;7.90;99.90;;;;;;5008454;28;20548;-94
2021/03/13 12:58:29;;;;;;;0.90;0.70;;;7.90;99.90;;;;;;4993706;28;20199;-93
2021/03/13 13:00:55;;;;;;;4.80;1.17;;;7.80;99.90;;;;;;5004809;28;20223;-93
2021/03/13 13:03:22;;;;;;;2.13;0.90;;;7.60;99.90;;;;;;5009078;28;20226;-90
2021/03/13 13:05:48;;;;;;;11.53;1.83;;;7.50;99.90;;;;;;4990020;28;20224;-95
2021/03/13 13:08:14;;;;;;;0.40;0.40;;;7.50;99.90;;;;;;4993739;28;20293;-93